Time;durP1;ratioP1;P1;durP2;ratioP2;P2;SDS_P1;SDS_P2;PMS_P1;PMS_P2;Temp;Humidity;BMP_temperature;BMP_pressure;BME280_temperature;BME280_humidity;BME280_pressure;Samples;Min_cycle;Max_cycle;Signal;HPM_P1;HPM_P2
2023/01/23 00:01:37;;;;;;;;;;;;;;;;;;4996626;28;20384;-69
2023/01/23 00:04:03;;;;;;;;;;;;;;;;;;4996826;28;19952;-69
2023/01/23 00:06:29;;;;;;;;;;;;;;;;;;4996565;28;20035;-70
2023/01/23 00:08:55;;;;;;;;;;;;;;;;;;4997063;28;20423;-69
2023/01/23 00:11:21;;;;;;;;;;;;;;;;;;4996465;28;19949;-70
2023/01/23 00:13:47;;;;;;;;;;;;;;;;;;4996474;28;19949;-69
2023/01/23 00:16:13;;;;;;;;;;;;;;;;;;4996534;28;20364;-69
2023/01/23 00:18:39;;;;;;;;;;;;;;;;;;4996276;28;19949;-69
2023/01/23 00:21:05;;;;;;;;;;;;;;;;;;4996810;28;19955;-71
2023/01/23 00:23:31;;;;;;;;;;;;;;;;;;4996190;28;19955;-70
2023/01/23 00:25:56;;;;;;;;;;;;;;;;;;4996720;28;19948;-69
2023/01/23 00:28:22;;;;;;;;;;;;;;;;;;4996137;28;19948;-69
2023/01/23 00:30:50;;;;;;;;;;;;;;;;;;4994463;28;20280;-70
2023/01/23 00:33:16;;;;;;;;;;;;;;;;;;4996309;28;19950;-69
2023/01/23 00:35:42;;;;;;;;;;;;;;;;;;4996158;28;19979;-70
2023/01/23 00:38:08;;;;;;;;;;;;;;;;;;4996521;28;19997;-70
2023/01/23 00:40:34;;;;;;;;;;;;;;;;;;4995871;28;20439;-69
2023/01/23 00:43:00;;;;;;;;;;;;;;;;;;4995855;28;19952;-70
2023/01/23 00:45:26;;;;;;;;;;;;;;;;;;4996030;28;19957;-72
2023/01/23 00:47:51;;;;;;;;;;;;;;;;;;4995772;28;19975;-71
2023/01/23 00:50:17;;;;;;;;;;;;;;;;;;4995524;28;20082;-70
2023/01/23 00:52:43;;;;;;;;;;;;;;;;;;4995666;28;19953;-70
2023/01/23 00:55:09;;;;;;;;;;;;;;;;;;4996166;28;20304;-69
2023/01/23 00:57:35;;;;;;;;;;;;;;;;;;4995780;28;19971;-69
2023/01/23 01:00:01;;;;;;;;;;;;;;;;;;4995492;28;20014;-69
2023/01/23 01:02:27;;;;;;;;;;;;;;;;;;4996002;28;19961;-70
2023/01/23 01:04:53;;;;;;;;;;;;;;;;;;4995394;28;19996;-69
2023/01/23 01:07:18;;;;;;;;;;;;;;;;;;4995367;28;19959;-71
2023/01/23 01:09:44;;;;;;;;;;;;;;;;;;4995630;28;19957;-69
2023/01/23 01:12:10;;;;;;;;;;;;;;;;;;4995528;28;19952;-70
2023/01/23 01:14:36;;;;;;;;;;;;;;;;;;4995792;28;20023;-69
2023/01/23 01:17:02;;;;;;;;;;;;;;;;;;4995104;28;20018;-69
2023/01/23 01:19:28;;;;;;;;;;;;;;;;;;4995722;28;19952;-70
2023/01/23 01:21:54;;;;;;;;;;;;;;;;;;4995101;28;20434;-70
2023/01/23 01:24:20;;;;;;;;;;;;;;;;;;4995090;28;19959;-70
2023/01/23 01:26:46;;;;;;;;;;;;;;;;;;4994835;28;19957;-70
2023/01/23 01:29:12;;;;;;;;;;;;;;;;;;4994563;28;19995;-70
2023/01/23 01:31:38;;;;;;;;;;;;;;;;;;4995240;28;19947;-70
2023/01/23 01:34:03;;;;;;;;;;;;;;;;;;4994898;28;19996;-70
2023/01/23 01:36:29;;;;;;;;;;;;;;;;;;4995063;28;19968;-70
2023/01/23 01:38:55;;;;;;;;;;;;;;;;;;4994817;28;20464;-69
2023/01/23 01:41:21;;;;;;;;;;;;;;;;;;4995067;28;19953;-70
2023/01/23 01:43:47;;;;;;;;;;;;;;;;;;4994732;28;19953;-69
2023/01/23 01:46:13;;;;;;;;;;;;;;;;;;4995302;28;20389;-69
2023/01/23 01:48:39;;;;;;;;;;;;;;;;;;4994615;28;20444;-69
2023/01/23 01:51:05;;;;;;;;;;;;;;;;;;4994217;28;19982;-69
2023/01/23 01:53:31;;;;;;;;;;;;;;;;;;4994622;28;20034;-70
2023/01/23 01:55:57;;;;;;;;;;;;;;;;;;4995067;28;19983;-71
2023/01/23 01:58:22;;;;;;;;;;;;;;;;;;4994542;28;19952;-69
2023/01/23 02:00:48;;;;;;;;;;;;;;;;;;4994789;28;19953;-71
2023/01/23 02:03:15;;;;;;;;;;;;;;;;;;4994757;28;20428;-70
2023/01/23 02:05:41;;;;;;;;;;;;;;;;;;4995020;28;19955;-70
2023/01/23 02:08:08;;;;;;;;;;;;;;;;;;4994455;28;19956;-68
2023/01/23 02:10:35;;;;;;;;;;;;;;;;;;4994434;28;19952;-70
2023/01/23 02:13:01;;;;;;;;;;;;;;;;;;4994651;28;19947;-69
2023/01/23 02:15:26;;;;;;;;;;;;;;;;;;4994276;28;20295;-70
2023/01/23 02:17:53;;;;;;;;;;;;;;;;;;4994357;28;19959;-71
2023/01/23 02:20:19;;;;;;;;;;;;;;;;;;4994591;28;19950;-68
2023/01/23 02:22:45;;;;;;;;;;;;;;;;;;4994342;28;20039;-70
2023/01/23 02:25:11;;;;;;;;;;;;;;;;;;4994539;28;20055;-70
2023/01/23 02:27:37;;;;;;;;;;;;;;;;;;4994292;28;19957;-68
2023/01/23 02:30:04;;;;;;;;;;;;;;;;;;4994229;28;19960;-70
2023/01/23 02:32:30;;;;;;;;;;;;;;;;;;4994212;28;20033;-69
2023/01/23 02:34:56;;;;;;;;;;;;;;;;;;4994712;28;20059;-69
2023/01/23 02:37:22;;;;;;;;;;;;;;;;;;4994363;28;19972;-70
2023/01/23 02:39:48;;;;;;;;;;;;;;;;;;4997269;28;19948;-69
2023/01/23 02:42:14;;;;;;;;;;;;;;;;;;4998074;28;19951;-70
2023/01/23 02:44:40;;;;;;;;;;;;;;;;;;4998039;28;19944;-69
2023/01/23 02:47:11;;;;;;;;;;;;;;;;;;4998108;28;19991;-70
2023/01/23 02:49:37;;;;;;;;;;;;;;;;;;4998139;28;19988;-69
2023/01/23 02:52:03;;;;;;;;;;;;;;;;;;4998189;28;19959;-68
2023/01/23 02:54:29;;;;;;;;;;;;;;;;;;4998180;28;20397;-69
2023/01/23 02:56:56;;;;;;;;;;;;;;;;;;4998059;28;19980;-69
2023/01/23 03:02:06;;;;;;;;;;;;;;;;;;4997746;28;20324;-70
2023/01/23 03:04:32;;;;;;;;;;;;;;;;;;4998240;28;19976;-70
2023/01/23 03:06:58;;;;;;;;;;;;;;;;;;4997622;28;20416;-69
2023/01/23 03:09:24;;;;;;;;;;;;;;;;;;4997857;28;19952;-71
2023/01/23 03:11:51;;;;;;;;;;;;;;;;;;4997568;28;20429;-70
2023/01/23 03:14:16;;;;;;;;;;;;;;;;;;4997757;28;19961;-69
2023/01/23 03:16:45;;;;;;;;;;;;;;;;;;4997646;28;19969;-70
2023/01/23 03:19:11;;;;;;;;;;;;;;;;;;4997401;28;20006;-69
2023/01/23 03:21:38;;;;;;;;;;;;;;;;;;4997397;28;19956;-69
2023/01/23 03:24:04;;;;;;;;;;;;;;;;;;4997876;28;19951;-69
2023/01/23 03:26:30;;;;;;;;;;;;;;;;;;4997556;28;19945;-70
2023/01/23 03:31:40;;;;;;;;;;;;;;;;;;4996907;28;20472;-71
2023/01/23 03:34:06;;;;;;;;;;;;;;;;;;4997408;28;19960;-72
2023/01/23 03:36:36;;;;;;;;;;;;;;;;;;4997028;28;19992;-69
2023/01/23 03:41:47;;;;;;;;;;;;;;;;;;4997067;28;19959;-69
2023/01/23 03:44:12;;;;;;;;;;;;;;;;;;4996959;28;20373;-69
2023/01/23 03:46:38;;;;;;;;;;;;;;;;;;4997425;28;19957;-69
2023/01/23 03:49:04;;;;;;;;;;;;;;;;;;4996713;28;20056;-70
2023/01/23 03:51:30;;;;;;;;;;;;;;;;;;4996718;28;20395;-70
2023/01/23 03:53:56;;;;;;;;;;;;;;;;;;4997106;28;19956;-70
2023/01/23 03:56:22;;;;;;;;;;;;;;;;;;4996677;28;19996;-69
2023/01/23 03:58:48;;;;;;;;;;;;;;;;;;4997268;28;19952;-71
2023/01/23 04:01:14;;;;;;;;;;;;;;;;;;4996664;28;20008;-69
2023/01/23 04:03:40;;;;;;;;;;;;;;;;;;4996600;28;19952;-70
2023/01/23 04:06:05;;;;;;;;;;;;;;;;;;4996802;28;19947;-69
2023/01/23 04:08:31;;;;;;;;;;;;;;;;;;4996492;28;20441;-71
2023/01/23 04:10:57;;;;;;;;;;;;;;;;;;4996751;28;19956;-70
2023/01/23 04:13:23;;;;;;;;;;;;;;;;;;4996442;28;20297;-69
2023/01/23 04:15:49;;;;;;;;;;;;;;;;;;4996323;28;20017;-69
2023/01/23 04:18:15;;;;;;;;;;;;;;;;;;4996585;28;19953;-69
2023/01/23 04:20:41;;;;;;;;;;;;;;;;;;4996528;28;19959;-69
2023/01/23 04:23:07;;;;;;;;;;;;;;;;;;4996262;28;20049;-70
2023/01/23 04:25:33;;;;;;;;;;;;;;;;;;4996179;28;19952;-69
2023/01/23 04:27:59;;;;;;;;;;;;;;;;;;4996152;28;19958;-69
2023/01/23 04:30:24;;;;;;;;;;;;;;;;;;4996387;28;19958;-70
2023/01/23 04:32:50;;;;;;;;;;;;;;;;;;4996084;28;20037;-70
2023/01/23 04:35:16;;;;;;;;;;;;;;;;;;4996349;28;19958;-69
2023/01/23 04:37:42;;;;;;;;;;;;;;;;;;4995927;28;19967;-69
2023/01/23 04:40:08;;;;;;;;;;;;;;;;;;4996531;28;19998;-69
2023/01/23 04:42:34;;;;;;;;;;;;;;;;;;4995905;28;20007;-69
2023/01/23 04:45:00;;;;;;;;;;;;;;;;;;4996125;28;19947;-69
2023/01/23 04:47:26;;;;;;;;;;;;;;;;;;4995983;28;20424;-70
2023/01/23 04:49:52;;;;;;;;;;;;;;;;;;4995876;28;20079;-69
2023/01/23 04:52:17;;;;;;;;;;;;;;;;;;4995716;28;20475;-70
2023/01/23 04:54:43;;;;;;;;;;;;;;;;;;4995693;28;20006;-70
2023/01/23 04:57:09;;;;;;;;;;;;;;;;;;4995786;28;19965;-69
2023/01/23 04:59:35;;;;;;;;;;;;;;;;;;4995550;28;20003;-70
2023/01/23 05:02:01;;;;;;;;;;;;;;;;;;4995266;28;19953;-70
2023/01/23 05:04:27;;;;;;;;;;;;;;;;;;4995258;28;19964;-69
2023/01/23 05:06:53;;;;;;;;;;;;;;;;;;4995978;28;20386;-70
2023/01/23 05:09:19;;;;;;;;;;;;;;;;;;4995654;28;19946;-69
2023/01/23 05:11:45;;;;;;;;;;;;;;;;;;4995872;28;19947;-69
2023/01/23 05:14:11;;;;;;;;;;;;;;;;;;4995295;28;20045;-70
2023/01/23 05:16:36;;;;;;;;;;;;;;;;;;4995189;28;19975;-70
2023/01/23 05:19:02;;;;;;;;;;;;;;;;;;4995228;28;19960;-70
2023/01/23 05:21:28;;;;;;;;;;;;;;;;;;4995734;28;20418;-69
2023/01/23 05:23:54;;;;;;;;;;;;;;;;;;4995098;28;19954;-68
2023/01/23 05:26:20;;;;;;;;;;;;;;;;;;4995345;28;20350;-70
2023/01/23 05:28:46;;;;;;;;;;;;;;;;;;4995042;28;19949;-70
2023/01/23 05:31:12;;;;;;;;;;;;;;;;;;4994993;28;19953;-69
2023/01/23 05:33:39;;;;;;;;;;;;;;;;;;4995549;28;20312;-70
2023/01/23 05:36:05;;;;;;;;;;;;;;;;;;4994848;28;19972;-69
2023/01/23 05:38:31;;;;;;;;;;;;;;;;;;4994887;28;19952;-69
2023/01/23 05:40:57;;;;;;;;;;;;;;;;;;4995140;28;20318;-70
2023/01/23 05:43:22;;;;;;;;;;;;;;;;;;4994782;28;19948;-70
2023/01/23 05:45:48;;;;;;;;;;;;;;;;;;4995034;28;20023;-69
2023/01/23 05:48:14;;;;;;;;;;;;;;;;;;4994652;28;20009;-69
2023/01/23 05:50:40;;;;;;;;;;;;;;;;;;4994563;28;19988;-70
2023/01/23 05:53:06;;;;;;;;;;;;;;;;;;4995134;28;19999;-69
2023/01/23 05:55:32;;;;;;;;;;;;;;;;;;4994537;28;19949;-69
2023/01/23 05:57:58;;;;;;;;;;;;;;;;;;4994855;28;19946;-70
2023/01/23 06:00:24;;;;;;;;;;;;;;;;;;4994593;28;19997;-69
2023/01/23 06:02:49;;;;;;;;;;;;;;;;;;4994516;28;20063;-70
2023/01/23 06:05:15;;;;;;;;;;;;;;;;;;4994526;28;19994;-69
2023/01/23 06:07:42;;;;;;;;;;;;;;;;;;4994744;28;19953;-69
2023/01/23 06:10:07;;;;;;;;;;;;;;;;;;4994475;28;19960;-69
2023/01/23 06:12:33;;;;;;;;;;;;;;;;;;4994442;28;19953;-69
2023/01/23 06:14:59;;;;;;;;;;;;;;;;;;4994612;28;20297;-70
2023/01/23 06:17:25;;;;;;;;;;;;;;;;;;4994554;28;20018;-69
2023/01/23 06:19:51;;;;;;;;;;;;;;;;;;4994323;28;20040;-69
2023/01/23 06:22:17;;;;;;;;;;;;;;;;;;4994830;28;19954;-69
2023/01/23 06:24:43;;;;;;;;;;;;;;;;;;4994279;28;19953;-69
2023/01/23 06:27:09;;;;;;;;;;;;;;;;;;4994828;28;19998;-69
2023/01/23 06:29:35;;;;;;;;;;;;;;;;;;4994538;28;19999;-69
2023/01/23 06:32:01;;;;;;;;;;;;;;;;;;4994225;28;20436;-70
2023/01/23 06:34:26;;;;;;;;;;;;;;;;;;4994490;28;20044;-70
2023/01/23 06:36:52;;;;;;;;;;;;;;;;;;4994104;28;19970;-70
2023/01/23 06:39:18;;;;;;;;;;;;;;;;;;4994477;28;20007;-69
2023/01/23 06:41:44;;;;;;;;;;;;;;;;;;4994397;28;19947;-69
2023/01/23 06:44:10;;;;;;;;;;;;;;;;;;4994374;28;19957;-69
2023/01/23 06:46:36;;;;;;;;;;;;;;;;;;4994536;28;19954;-68
2023/01/23 06:49:02;;;;;;;;;;;;;;;;;;4993836;28;19965;-70
2023/01/23 06:51:28;;;;;;;;;;;;;;;;;;4994331;28;19956;-71
2023/01/23 06:53:55;;;;;;;;;;;;;;;;;;4994013;28;20327;-70
2023/01/23 06:56:20;;;;;;;;;;;;;;;;;;4993889;28;20083;-69
2023/01/23 06:58:47;;;;;;;;;;;;;;;;;;4993962;28;19989;-70
2023/01/23 07:01:14;;;;;;;;;;;;;;;;;;4994241;28;19952;-70
2023/01/23 07:03:40;;;;;;;;;;;;;;;;;;4993923;28;20417;-70
2023/01/23 07:06:06;;;;;;;;;;;;;;;;;;4994488;28;19955;-69
2023/01/23 07:08:32;;;;;;;;;;;;;;;;;;4992600;28;20394;-70
2023/01/23 07:10:58;;;;;;;;;;;;;;;;;;4994411;28;20043;-70
2023/01/23 07:13:24;;;;;;;;;;;;;;;;;;4994146;28;19983;-70
2023/01/23 07:15:50;;;;;;;;;;;;;;;;;;4993779;28;20043;-69
2023/01/23 07:18:16;;;;;;;;;;;;;;;;;;4994383;28;19953;-69
2023/01/23 07:20:42;;;;;;;;;;;;;;;;;;4994134;28;19946;-69
2023/01/23 07:23:08;;;;;;;;;;;;;;;;;;4993817;28;20303;-70
2023/01/23 07:25:33;;;;;;;;;;;;;;;;;;4994240;28;19959;-71
2023/01/23 07:27:59;;;;;;;;;;;;;;;;;;4997324;28;20024;-70
2023/01/23 07:30:25;;;;;;;;;;;;;;;;;;4997828;28;20456;-70
2023/01/23 07:32:51;;;;;;;;;;;;;;;;;;4997517;28;19995;-70
2023/01/23 07:35:17;;;;;;;;;;;;;;;;;;4997180;28;20042;-70
2023/01/23 07:37:43;;;;;;;;;;;;;;;;;;4995698;28;20426;-70
2023/01/23 07:40:09;;;;;;;;;;;;;;;;;;4997453;28;20041;-71
2023/01/23 07:42:35;;;;;;;;;;;;;;;;;;4997129;28;19960;-71
2023/01/23 07:45:01;;;;;;;;;;;;;;;;;;4996942;28;20439;-69
2023/01/23 07:47:27;;;;;;;;;;;;;;;;;;4996007;28;20022;-69
2023/01/23 07:49:52;;;;;;;;;;;;;;;;;;4995328;28;19989;-69
2023/01/23 07:52:18;;;;;;;;;;;;;;;;;;4994827;28;19956;-70
2023/01/23 07:54:44;;;;;;;;;;;;;;;;;;4995375;28;19952;-74
2023/01/23 07:57:10;;;;;;;;;;;;;;;;;;4996152;28;20547;-70
2023/01/23 07:59:36;;;;;;;;;;;;;;;;;;4994874;28;19961;-71
2023/01/23 08:02:02;;;;;;;;;;;;;;;;;;4979664;28;19961;-72
2023/01/23 08:04:28;;;;;;;;;;;;;;;;;;4977074;28;19959;-73
2023/01/23 08:06:54;;;;;;;;;;;;;;;;;;4996322;28;20036;-73
2023/01/23 08:09:19;;;;;;;;;;;;;;;;;;4996792;28;19946;-71
2023/01/23 08:11:45;;;;;;;;;;;;;;;;;;4996454;28;20410;-69
2023/01/23 08:14:11;;;;;;;;;;;;;;;;;;4996725;28;19953;-71
2023/01/23 08:16:37;;;;;;;;;;;;;;;;;;4996377;28;20373;-72
2023/01/23 08:19:03;;;;;;;;;;;;;;;;;;4996379;28;20048;-70
2023/01/23 08:21:29;;;;;;;;;;;;;;;;;;4981152;28;19956;-71
2023/01/23 08:23:55;;;;;;;;;;;;;;;;;;4977371;28;19957;-73
2023/01/23 08:26:21;;;;;;;;;;;;;;;;;;4977056;28;20000;-72
2023/01/23 08:28:46;;;;;;;;;;;;;;;;;;4991669;28;19960;-75
2023/01/23 08:31:12;;;;;;;;;;;;;;;;;;4976952;28;20032;-76
2023/01/23 08:33:38;;;;;;;;;;;;;;;;;;4976751;28;19958;-71
2023/01/23 08:36:04;;;;;;;;;;;;;;;;;;4976208;28;20435;-76
2023/01/23 08:38:30;;;;;;;;;;;;;;;;;;4976277;28;19963;-76
2023/01/23 08:40:56;;;;;;;;;;;;;;;;;;4976640;28;19982;-73
2023/01/23 08:43:22;;;;;;;;;;;;;;;;;;4977051;28;19952;-73
2023/01/23 08:45:48;;;;;;;;;;;;;;;;;;4991212;28;20321;-75
2023/01/23 08:48:14;;;;;;;;;;;;;;;;;;4976226;28;19976;-73
2023/01/23 08:50:40;;;;;;;;;;;;;;;;;;4976106;28;19988;-74
2023/01/23 08:53:06;;;;;;;;;;;;;;;;;;4976262;28;19960;-73
2023/01/23 08:55:34;;;;;;;;;;;;;;;;;;4976442;28;19975;-74
2023/01/23 08:58:00;;;;;;;;;;;;;;;;;;4993355;28;19980;-72
2023/01/23 09:00:26;;;;;;;;;;;;;;;;;;4992722;28;20056;-71
2023/01/23 09:02:52;;;;;;;;;;;;;;;;;;4990103;28;19959;-69
2023/01/23 09:05:18;;;;;;;;;;;;;;;;;;4996105;28;20450;-70
2023/01/23 09:07:44;;;;;;;;;;;;;;;;;;4995375;28;20370;-74
2023/01/23 09:10:11;;;;;;;;;;;;;;;;;;4995664;28;19974;-73
2023/01/23 09:12:37;;;;;;;;;;;;;;;;;;4994181;28;20392;-70
2023/01/23 09:15:03;;;;;;;;;;;;;;;;;;4995860;28;19986;-74
2023/01/23 09:17:29;;;;;;;;;;;;;;;;;;4995509;28;19972;-70
2023/01/23 09:19:55;;;;;;;;;;;;;;;;;;4995276;28;20030;-69
2023/01/23 09:22:21;;;;;;;;;;;;;;;;;;4995487;28;19956;-71
2023/01/23 09:24:47;;;;;;;;;;;;;;;;;;4982002;28;20424;-73
2023/01/23 09:27:13;;;;;;;;;;;;;;;;;;4980984;28;19954;-77
2023/01/23 09:29:39;;;;;;;;;;;;;;;;;;4995022;28;19952;-69
2023/01/23 09:32:05;;;;;;;;;;;;;;;;;;4978381;28;20053;-70
2023/01/23 09:34:30;;;;;;;;;;;;;;;;;;4978939;28;19982;-70
2023/01/23 09:36:56;;;;;;;;;;;;;;;;;;4975407;28;19964;-70
2023/01/23 09:39:22;;;;;;;;;;;;;;;;;;4979487;28;19952;-72
2023/01/23 09:41:48;;;;;;;;;;;;;;;;;;4980939;28;19963;-73
2023/01/23 09:44:14;;;;;;;;;;;;;;;;;;4979243;28;20011;-70
2023/01/23 09:46:40;;;;;;;;;;;;;;;;;;4983320;28;19961;-70
2023/01/23 09:49:07;;;;;;;;;;;;;;;;;;4982764;28;20388;-74
2023/01/23 09:51:32;;;;;;;;;;;;;;;;;;4976249;28;19962;-74
2023/01/23 09:53:58;;;;;;;;;;;;;;;;;;4990405;28;20422;-73
2023/01/23 09:56:24;;;;;;;;;;;;;;;;;;4975363;28;19977;-70
2023/01/23 09:58:50;;;;;;;;;;;;;;;;;;4975127;28;19952;-71
2023/01/23 10:01:16;;;;;;;;;;;;;;;;;;4975393;28;19952;-72
2023/01/23 10:03:42;;;;;;;;;;;;;;;;;;4975051;28;19945;-72
2023/01/23 10:06:08;;;;;;;;;;;;;;;;;;4974990;28;20317;-76
2023/01/23 10:08:34;;;;;;;;;;;;;;;;;;4975010;28;19979;-76
2023/01/23 10:11:00;;;;;;;;;;;;;;;;;;4975435;28;19963;-71
2023/01/23 10:13:26;;;;;;;;;;;;;;;;;;4975008;28;20372;-71
2023/01/23 10:15:51;;;;;;;;;;;;;;;;;;4986502;28;19991;-75
2023/01/23 10:18:17;;;;;;;;;;;;;;;;;;4993087;28;19955;-76
2023/01/23 10:20:43;;;;;;;;;;;;;;;;;;4994924;28;19952;-76
2023/01/23 10:23:09;;;;;;;;;;;;;;;;;;4986349;28;19956;-75
2023/01/23 10:25:36;;;;;;;;;;;;;;;;;;4986300;28;20416;-71
2023/01/23 10:28:02;;;;;;;;;;;;;;;;;;4990958;28;19954;-72
2023/01/23 10:30:28;;;;;;;;;;;;;;;;;;4984107;28;20004;-73
2023/01/23 10:32:54;;;;;;;;;;;;;;;;;;4975220;28;19960;-71
2023/01/23 10:35:20;;;;;;;;;;;;;;;;;;4989682;28;20115;-69
2023/01/23 10:37:45;;;;;;;;;;;;;;;;;;4990131;28;19968;-72
2023/01/23 10:40:11;;;;;;;;;;;;;;;;;;4992115;28;19956;-72
2023/01/23 10:42:37;;;;;;;;;;;;;;;;;;4994169;28;19963;-72
2023/01/23 10:45:03;;;;;;;;;;;;;;;;;;4989743;28;19950;-71
2023/01/23 10:47:29;;;;;;;;;;;;;;;;;;4993654;28;19984;-71
2023/01/23 10:49:55;;;;;;;;;;;;;;;;;;4992603;28;19990;-71
2023/01/23 10:52:21;;;;;;;;;;;;;;;;;;4993512;28;20293;-74
2023/01/23 10:54:47;;;;;;;;;;;;;;;;;;4994049;28;19949;-74
2023/01/23 10:57:13;;;;;;;;;;;;;;;;;;4986054;28;19977;-75
2023/01/23 10:59:40;;;;;;;;;;;;;;;;;;4975251;28;20414;-73
2023/01/23 11:02:06;;;;;;;;;;;;;;;;;;4978597;28;19951;-75
2023/01/23 11:04:32;;;;;;;;;;;;;;;;;;4978053;28;20383;-75
2023/01/23 11:06:58;;;;;;;;;;;;;;;;;;4978076;28;19951;-73
2023/01/23 11:09:24;;;;;;;;;;;;;;;;;;4985450;28;19955;-73
2023/01/23 11:11:50;;;;;;;;;;;;;;;;;;4993511;28;19978;-75
2023/01/23 11:14:20;;;;;;;;;;;;;;;;;;4978661;28;19952;-73
2023/01/23 11:16:46;;;;;;;;;;;;;;;;;;4977714;28;19975;-71
2023/01/23 11:19:12;;;;;;;;;;;;;;;;;;4978023;28;19949;-73
2023/01/23 11:21:38;;;;;;;;;;;;;;;;;;4978025;28;20002;-73
2023/01/23 11:24:04;;;;;;;;;;;;;;;;;;4978030;28;20316;-73
2023/01/23 11:26:30;;;;;;;;;;;;;;;;;;4993160;28;19965;-72
2023/01/23 11:28:55;;;;;;;;;;;;;;;;;;4994106;28;19952;-72
2023/01/23 11:31:21;;;;;;;;;;;;;;;;;;4992137;28;19949;-73
2023/01/23 11:33:50;;;;;;;;;;;;;;;;;;4996428;28;19955;-73
2023/01/23 11:36:16;;;;;;;;;;;;;;;;;;4985237;28;19972;-72
2023/01/23 11:38:42;;;;;;;;;;;;;;;;;;4985442;28;20023;-72
2023/01/23 11:41:08;;;;;;;;;;;;;;;;;;4977562;28;20321;-72
2023/01/23 11:43:34;;;;;;;;;;;;;;;;;;4977495;28;19998;-71
2023/01/23 11:46:00;;;;;;;;;;;;;;;;;;4977774;28;20016;-71
2023/01/23 11:48:26;;;;;;;;;;;;;;;;;;4977380;28;19973;-71
2023/01/23 11:50:52;;;;;;;;;;;;;;;;;;4975930;28;19990;-72
2023/01/23 11:53:18;;;;;;;;;;;;;;;;;;4977430;28;20309;-72
2023/01/23 11:55:44;;;;;;;;;;;;;;;;;;4977860;28;19945;-72
2023/01/23 11:58:13;;;;;;;;;;;;;;;;;;4977566;28;19957;-73
2023/01/23 12:00:39;;;;;;;;;;;;;;;;;;4976017;28;19956;-74
2023/01/23 12:03:05;;;;;;;;;;;;;;;;;;4977180;28;19946;-73
2023/01/23 12:05:30;;;;;;;;;;;;;;;;;;4977715;28;19974;-73
2023/01/23 12:07:56;;;;;;;;;;;;;;;;;;4977116;28;20000;-72
2023/01/23 12:10:23;;;;;;;;;;;;;;;;;;4977328;28;19953;-72
2023/01/23 12:12:49;;;;;;;;;;;;;;;;;;4975246;28;20389;-73
2023/01/23 12:15:16;;;;;;;;;;;;;;;;;;4977586;28;19952;-74
2023/01/23 12:17:42;;;;;;;;;;;;;;;;;;4977199;28;19998;-72
2023/01/23 12:20:07;;;;;;;;;;;;;;;;;;4977472;28;20059;-72
2023/01/23 12:22:33;;;;;;;;;;;;;;;;;;4976910;28;19960;-73
2023/01/23 12:24:59;;;;;;;;;;;;;;;;;;4977353;28;19955;-73
2023/01/23 12:27:25;;;;;;;;;;;;;;;;;;4976782;28;20039;-73
2023/01/23 12:29:51;;;;;;;;;;;;;;;;;;4977318;28;20350;-71
2023/01/23 12:32:17;;;;;;;;;;;;;;;;;;4976671;28;19994;-74
2023/01/23 12:34:44;;;;;;;;;;;;;;;;;;4976870;28;19948;-73
2023/01/23 12:37:10;;;;;;;;;;;;;;;;;;4976825;28;19976;-73
2023/01/23 12:39:36;;;;;;;;;;;;;;;;;;4976525;28;20451;-72
2023/01/23 12:42:02;;;;;;;;;;;;;;;;;;4976432;28;19954;-71
2023/01/23 12:44:28;;;;;;;;;;;;;;;;;;4976429;28;19956;-71
2023/01/23 12:46:54;;;;;;;;;;;;;;;;;;4976299;28;19968;-73
2023/01/23 12:49:21;;;;;;;;;;;;;;;;;;4976365;28;20015;-72
2023/01/23 12:51:46;;;;;;;;;;;;;;;;;;4976642;28;19947;-73
2023/01/23 12:54:12;;;;;;;;;;;;;;;;;;4976207;28;19960;-72
2023/01/23 12:56:41;;;;;;;;;;;;;;;;;;4974828;28;20445;-73
2023/01/23 12:59:07;;;;;;;;;;;;;;;;;;4976165;28;20048;-73
2023/01/23 13:01:33;;;;;;;;;;;;;;;;;;4976341;28;19995;-72
2023/01/23 13:03:59;;;;;;;;;;;;;;;;;;4976090;28;20383;-73
2023/01/23 13:06:25;;;;;;;;;;;;;;;;;;4976303;28;19948;-73
2023/01/23 13:08:51;;;;;;;;;;;;;;;;;;4975982;28;19952;-71
2023/01/23 13:14:01;;;;;;;;;;;;;;;;;;4975970;28;20529;-71
2023/01/23 13:16:27;;;;;;;;;;;;;;;;;;4975513;28;20075;-73
2023/01/23 13:27:07;;;;;;;;;;;;;;;;;;4976038;28;19999;-73
2023/01/23 13:29:33;;;;;;;;;;;;;;;;;;4975426;28;20333;-74
2023/01/23 13:31:59;;;;;;;;;;;;;;;;;;4975599;28;20033;-71
2023/01/23 13:34:24;;;;;;;;;;;;;;;;;;4979763;28;19956;-73
2023/01/23 13:36:50;;;;;;;;;;;;;;;;;;4994526;28;19969;-73
2023/01/23 13:39:16;;;;;;;;;;;;;;;;;;4994897;28;19953;-72
2023/01/23 13:41:42;;;;;;;;;;;;;;;;;;4992900;28;20433;-72
2023/01/23 13:44:08;;;;;;;;;;;;;;;;;;4994798;28;19951;-73
2023/01/23 13:46:34;;;;;;;;;;;;;;;;;;4994064;28;19965;-74
2023/01/23 13:51:44;;;;;;;;;;;;;;;;;;4975303;28;20036;-71
2023/01/23 13:57:09;;;;;;;;;;;;;;;;;;4971557;28;19980;-74
2023/01/23 13:59:35;;;;;;;;;;;;;;;;;;4987903;28;19969;-76
2023/01/23 14:07:43;;;;;;;;;;;;;;;;;;4975183;28;19956;-74
2023/01/23 14:10:08;;;;;;;;;;;;;;;;;;4975275;28;19951;-72
2023/01/23 14:12:34;;;;;;;;;;;;;;;;;;4975892;28;20051;-73
2023/01/23 14:17:59;;;;;;;;;;;;;;;;;;4941984;28;19974;-69
2023/01/23 14:20:25;;;;;;;;;;;;;;;;;;4975963;28;19963;-75
2023/01/23 14:22:50;;;;;;;;;;;;;;;;;;4981380;28;19952;-73
2023/01/23 14:25:17;;;;;;;;;;;;;;;;;;4979101;28;19963;-73
2023/01/23 14:27:43;;;;;;;;;;;;;;;;;;4978059;28;19964;-71
2023/01/23 14:30:09;;;;;;;;;;;;;;;;;;4974855;28;19948;-72
2023/01/23 14:32:35;;;;;;;;;;;;;;;;;;4975823;28;19956;-75
2023/01/23 14:35:00;;;;;;;;;;;;;;;;;;4996073;28;19958;-73
2023/01/23 14:37:26;;;;;;;;;;;;;;;;;;4998192;28;20308;-71
2023/01/23 14:39:52;;;;;;;;;;;;;;;;;;4983222;28;20462;-73
2023/01/23 14:42:18;;;;;;;;;;;;;;;;;;4978787;28;19950;-71
2023/01/23 14:44:44;;;;;;;;;;;;;;;;;;4978553;28;19961;-72
2023/01/23 14:47:10;;;;;;;;;;;;;;;;;;4978683;28;20004;-74
2023/01/23 14:49:36;;;;;;;;;;;;;;;;;;4978069;28;20337;-74
2023/01/23 14:52:02;;;;;;;;;;;;;;;;;;4978757;28;20000;-72
2023/01/23 14:54:28;;;;;;;;;;;;;;;;;;4980953;28;20341;-74
2023/01/23 14:56:55;;;;;;;;;;;;;;;;;;4997897;28;19967;-73
2023/01/23 14:59:21;;;;;;;;;;;;;;;;;;4984908;28;20075;-72
2023/01/23 15:01:46;;;;;;;;;;;;;;;;;;4978645;28;20063;-73
2023/01/23 15:04:12;;;;;;;;;;;;;;;;;;4996387;28;20383;-75
2023/01/23 15:06:38;;;;;;;;;;;;;;;;;;4990811;28;19999;-75
2023/01/23 15:09:04;;;;;;;;;;;;;;;;;;4978340;28;19954;-73
2023/01/23 15:11:30;;;;;;;;;;;;;;;;;;4977825;28;19964;-74
2023/01/23 15:14:00;;;;;;;;;;;;;;;;;;4978105;28;20353;-73
2023/01/23 15:16:27;;;;;;;;;;;;;;;;;;4976819;28;19977;-74
2023/01/23 15:18:53;;;;;;;;;;;;;;;;;;4984999;28;19960;-74
2023/01/23 15:21:19;;;;;;;;;;;;;;;;;;4997454;28;20326;-74
2023/01/23 15:23:44;;;;;;;;;;;;;;;;;;4997052;28;20436;-77
2023/01/23 15:26:10;;;;;;;;;;;;;;;;;;4996413;28;19967;-73
2023/01/23 15:28:36;;;;;;;;;;;;;;;;;;4997367;28;19947;-77
2023/01/23 15:31:02;;;;;;;;;;;;;;;;;;4996026;28;19956;-77
2023/01/23 15:33:28;;;;;;;;;;;;;;;;;;4985517;28;20417;-78
2023/01/23 15:35:54;;;;;;;;;;;;;;;;;;4997448;28;19987;-72
2023/01/23 15:38:20;;;;;;;;;;;;;;;;;;4997091;28;20472;-75
2023/01/23 15:40:46;;;;;;;;;;;;;;;;;;4996202;28;19959;-74
2023/01/23 15:43:12;;;;;;;;;;;;;;;;;;4997083;28;19952;-69
2023/01/23 15:45:38;;;;;;;;;;;;;;;;;;4996889;28;20006;-70
2023/01/23 15:48:04;;;;;;;;;;;;;;;;;;4988397;28;19970;-70
2023/01/23 15:50:30;;;;;;;;;;;;;;;;;;4976258;28;19995;-73
2023/01/23 15:52:55;;;;;;;;;;;;;;;;;;4977503;28;19965;-70
2023/01/23 15:55:21;;;;;;;;;;;;;;;;;;4980281;28;19963;-71
2023/01/23 15:57:47;;;;;;;;;;;;;;;;;;4977523;28;19976;-71
2023/01/23 16:00:13;;;;;;;;;;;;;;;;;;4977392;28;20418;-72
2023/01/23 16:02:39;;;;;;;;;;;;;;;;;;4976969;28;19964;-72
2023/01/23 16:05:06;;;;;;;;;;;;;;;;;;4977334;28;19951;-71
2023/01/23 16:07:33;;;;;;;;;;;;;;;;;;4988979;28;20455;-72
2023/01/23 16:09:59;;;;;;;;;;;;;;;;;;4996591;28;20464;-72
2023/01/23 16:12:24;;;;;;;;;;;;;;;;;;4995824;28;20082;-71
2023/01/23 16:14:50;;;;;;;;;;;;;;;;;;4996717;28;19950;-70
2023/01/23 16:17:16;;;;;;;;;;;;;;;;;;4987410;28;19978;-71
2023/01/23 16:19:42;;;;;;;;;;;;;;;;;;4987424;28;19948;-74
2023/01/23 16:22:08;;;;;;;;;;;;;;;;;;4996374;28;19960;-71
2023/01/23 16:24:34;;;;;;;;;;;;;;;;;;4996860;28;19957;-71
2023/01/23 16:27:01;;;;;;;;;;;;;;;;;;4994188;28;19953;-74
2023/01/23 16:29:27;;;;;;;;;;;;;;;;;;4980073;28;19964;-69
2023/01/23 16:31:53;;;;;;;;;;;;;;;;;;4976748;28;19953;-69
2023/01/23 16:34:19;;;;;;;;;;;;;;;;;;4976487;28;19952;-70
2023/01/23 16:36:45;;;;;;;;;;;;;;;;;;4976253;28;20066;-70
2023/01/23 16:39:11;;;;;;;;;;;;;;;;;;4976518;28;19945;-69
2023/01/23 16:41:37;;;;;;;;;;;;;;;;;;4976525;28;19946;-69
2023/01/23 16:44:02;;;;;;;;;;;;;;;;;;4976409;28;20033;-70
2023/01/23 16:46:28;;;;;;;;;;;;;;;;;;4976984;28;20300;-71
2023/01/23 16:48:55;;;;;;;;;;;;;;;;;;4976465;28;19957;-69
2023/01/23 16:51:21;;;;;;;;;;;;;;;;;;4976693;28;19955;-68
2023/01/23 16:53:47;;;;;;;;;;;;;;;;;;4976322;28;19956;-69
2023/01/23 16:56:13;;;;;;;;;;;;;;;;;;4976451;28;19991;-69
2023/01/23 16:58:39;;;;;;;;;;;;;;;;;;4976339;28;19956;-69
2023/01/23 17:01:05;;;;;;;;;;;;;;;;;;4976737;28;19957;-68
2023/01/23 17:03:31;;;;;;;;;;;;;;;;;;4976116;28;20369;-68
2023/01/23 17:05:56;;;;;;;;;;;;;;;;;;4976080;28;20052;-69
2023/01/23 17:08:22;;;;;;;;;;;;;;;;;;4976279;28;19952;-68
2023/01/23 17:10:48;;;;;;;;;;;;;;;;;;4976003;28;19951;-70